Wood, Pennsylvania
Current Conditions -  °F | °C
As of 12:53 AM on Thursday 29 Jan 2015 (Local Time) from KAOO Reporting Station
Clear Clear  
Wind Chill: -4°   Ceiling: Unl
Heat Index:   Visibility: 7mi
Dew Point:   Wind: 5mph
Humidity: 84%   Direction: 240°WSW
Pressure: 30.25"   Gusts: NA
Location:  40.17°N, 78.14°W
Report Text: KAOO 290553Z AUTO 24004KT 7SM CLR M15/M17 A3025 RMK AO2 SLPNO T11501172 11078 21172 56008
Loading
Personal Weather Stations






























Interactive Weather Map New forecast layout! Learn more

10-Day Weather Forecast

Advertisements
Track Severe Weather on mobile